Overview Statistics Trail Chart Weather Telemetry Raw packets
 

This is the latest recevied weather packets stored in our database for station/object KF7U. If no packets are shown the sender has not sent any weather packets the latest 10 day(s).

<< 71 72 73 74 75 76 77 >>
Time Temp. Humidity Pressure Rain* Wind** Luminosity Snow
1788159488 28.33° C 57% 1013.2 hPa 0 mm - - -
1788159187 28.89° C 57% 1013.2 hPa 0 mm - - -
1788158888 29.44° C 54% 1013.2 hPa 0 mm - - -
1788158587 29.44° C 52% 1013.2 hPa 0 mm - - -
1788158287 30° C 50% 1013.2 hPa 0 mm - - -
1788157996 30° C 50% 1013.2 hPa 0 mm - - -
1788157688 30° C 52% 1013.2 hPa 0 mm - - -
1788157387 30° C 52% 1012.5 hPa 0 mm - - -
1788157088 31.11° C 50% 1012.5 hPa 0 mm - - -
1788156790 31.11° C 50% 1012.2 hPa 0 mm - - -
1788156487 31.11° C 50% 1012.2 hPa 0 mm - - -
1788156187 30.56° C 50% 1012.2 hPa 0 mm - - -
1788155890 30.56° C 50% 1012.2 hPa 0 mm - - -
1788155587 30.56° C 50% 1012.2 hPa 0 mm - - -
1788155287 30.56° C 51% 1012.2 hPa 0 mm - - -
1788154988 30.56° C 51% 1012.2 hPa 0 mm - - -
1788154704 30.56° C 51% 1012.2 hPa 0 mm - - -
1788154387 30.56° C 51% 1012.5 hPa 0 mm - - -
1788154087 30.56° C 51% 1012.5 hPa 0 mm - - -
1788153788 30.56° C 51% 1012.5 hPa 0 mm - - -
1788153488 30.56° C 52% 1012.5 hPa 0 mm - - -
1788153187 30.56° C 52% 1012.5 hPa 0 mm - - -
1788152887 30.56° C 53% 1012.5 hPa 0 mm - - -
1788152588 30.56° C 53% 1012.9 hPa 0 mm - - -
1788152287 30.56° C 52% 1012.9 hPa 0 mm - - -

* Rain latest hour (hover to see other rain measurements)
** Current wind speed in m/s (hover to see current wind gust speed)